createdAt,value
2022-12-11T00:01:10.549Z,97.18
2022-12-11T00:04:25.583Z,96.72
2022-12-11T00:07:34.248Z,96.32
2022-12-11T00:10:42.614Z,95.75
2022-12-11T00:14:04.662Z,95.46
2022-12-11T00:17:12.688Z,95.87
2022-12-11T00:20:21.912Z,96.02
2022-12-11T00:23:30.596Z,96.83
2022-12-11T00:26:39.490Z,95.76
2022-12-11T00:29:54.643Z,95.72
2022-12-11T00:32:56.459Z,96.05
2022-12-11T00:36:19.786Z,95.69
2022-12-11T00:39:21.646Z,96.23
2022-12-11T00:42:36.737Z,95.54
2022-12-11T00:45:47.690Z,95.77
2022-12-11T00:48:56.272Z,95.01
2022-12-11T00:52:04.962Z,94.44
2022-12-11T00:55:13.262Z,94.98
2022-12-11T00:58:21.614Z,95.54
2022-12-11T01:01:30.389Z,95.14
2022-12-11T01:04:41.598Z,95.64
2022-12-11T01:07:50.216Z,95.24
2022-12-11T01:10:58.627Z,94.68
2022-12-11T01:14:13.985Z,94.79
2022-12-11T01:17:22.630Z,95.08
2022-12-11T01:20:31.623Z,94.36
2022-12-11T01:23:39.659Z,94.21
2022-12-11T01:26:48.282Z,94.40
2022-12-11T01:29:56.801Z,94.98
2022-12-11T01:33:05.525Z,93.99
2022-12-11T01:36:24.585Z,94.23
2022-12-11T01:39:32.906Z,94.61
2022-12-11T01:42:41.283Z,94.66
2022-12-11T01:45:53.715Z,94.51
2022-12-11T01:49:06.285Z,94.10
2022-12-11T01:52:20.619Z,94.04
2022-12-11T01:55:29.590Z,94.07
2022-12-11T01:58:40.646Z,94.66
2022-12-11T02:02:03.365Z,94.51
2022-12-11T02:05:13.743Z,94.28
2022-12-11T02:08:28.673Z,93.71
2022-12-11T02:11:53.678Z,92.68
2022-12-11T02:15:37.711Z,92.99
2022-12-11T02:19:07.817Z,92.29
2022-12-11T02:22:23.702Z,92.19
2022-12-11T02:25:48.773Z,91.63
2022-12-11T02:29:07.692Z,92.38
2022-12-11T02:32:30.750Z,93.46
2022-12-11T02:35:42.334Z,92.86
2022-12-11T02:38:56.787Z,92.11
2022-12-11T02:42:13.676Z,92.64
2022-12-11T02:45:17.823Z,91.29
2022-12-11T02:48:33.698Z,91.67
2022-12-11T02:51:44.150Z,92.06
2022-12-11T02:54:54.822Z,91.62
2022-12-11T02:58:12.896Z,92.00
2022-12-11T03:01:21.766Z,91.35
2022-12-11T03:04:30.649Z,90.86
2022-12-11T03:07:42.939Z,92.54
2022-12-11T03:10:51.511Z,92.14
2022-12-11T03:14:07.658Z,91.91
2022-12-11T03:17:22.834Z,92.49
2022-12-11T03:20:51.741Z,92.01
2022-12-11T03:24:09.751Z,92.14
2022-12-11T03:27:33.355Z,92.14
2022-12-11T03:30:49.875Z,90.84
2022-12-11T03:34:00.885Z,91.55
2022-12-11T03:37:11.534Z,91.71
2022-12-11T03:40:23.757Z,91.46
2022-12-11T03:43:34.001Z,92.53
2022-12-11T03:46:50.702Z,91.66
2022-12-11T03:49:54.110Z,92.35
2022-12-11T03:53:10.771Z,91.32
2022-12-11T03:56:20.766Z,91.79
2022-12-11T03:59:39.723Z,92.21
2022-12-11T04:02:42.585Z,91.98
2022-12-11T04:05:59.729Z,90.73
2022-12-11T04:09:08.699Z,91.93
2022-12-11T04:12:24.703Z,91.03
2022-12-11T04:15:33.897Z,91.64
2022-12-11T04:18:48.714Z,92.16
2022-12-11T04:21:56.745Z,91.55
2022-12-11T04:25:13.991Z,92.09
2022-12-11T04:28:22.315Z,92.38
2022-12-11T04:31:30.709Z,91.79
2022-12-11T04:34:39.390Z,91.55
2022-12-11T04:37:53.698Z,91.13
2022-12-11T04:41:06.416Z,92.35
2022-12-11T04:44:20.722Z,91.96
2022-12-11T04:47:28.743Z,91.84
2022-12-11T04:50:43.929Z,92.72
2022-12-11T04:53:52.949Z,91.20
2022-12-11T04:57:01.727Z,91.30
2022-12-11T05:00:11.965Z,91.28
2022-12-11T05:03:26.750Z,92.28
2022-12-11T05:06:28.702Z,91.58
2022-12-11T05:09:43.843Z,91.59
2022-12-11T05:12:51.784Z,91.20
2022-12-11T05:16:15.811Z,90.72
2022-12-11T05:19:24.759Z,91.21
2022-12-11T05:22:42.765Z,91.32
2022-12-11T05:25:52.117Z,92.30
2022-12-11T05:29:07.710Z,90.76
2022-12-11T05:32:15.818Z,90.47
2022-12-11T05:35:24.371Z,90.63
2022-12-11T05:38:39.905Z,90.37
2022-12-11T05:41:48.734Z,90.95
2022-12-11T05:45:03.774Z,90.86
2022-12-11T05:48:06.118Z,90.43
2022-12-11T05:51:22.746Z,91.16
2022-12-11T05:54:24.511Z,91.21
2022-12-11T05:57:38.725Z,90.72
2022-12-11T06:00:48.795Z,91.14
2022-12-11T06:04:04.757Z,90.53
2022-12-11T06:07:14.240Z,91.01
2022-12-11T06:10:22.909Z,90.64
2022-12-11T06:13:37.765Z,90.54
2022-12-11T06:16:39.821Z,91.12
2022-12-11T06:19:55.798Z,91.65
2022-12-11T06:23:04.741Z,91.02
2022-12-11T06:26:14.457Z,91.78
2022-12-11T06:29:22.782Z,90.48
2022-12-11T06:32:31.353Z,90.33
2022-12-11T06:35:42.323Z,89.83
2022-12-11T06:38:58.830Z,89.92
2022-12-11T06:42:06.855Z,89.21
2022-12-11T06:45:21.780Z,89.75
2022-12-11T06:48:30.882Z,89.36
2022-12-11T06:51:39.669Z,88.59
2022-12-11T06:54:47.811Z,88.60
2022-12-11T06:58:02.782Z,89.12
2022-12-11T07:01:25.804Z,89.47
2022-12-11T07:04:27.934Z,89.34
2022-12-11T07:07:42.804Z,89.18
2022-12-11T07:10:50.852Z,88.66
2022-12-11T07:14:12.878Z,88.70
2022-12-11T07:17:21.561Z,88.50
2022-12-11T07:20:32.065Z,88.69
2022-12-11T07:23:47.775Z,88.45
2022-12-11T07:26:55.882Z,88.06
2022-12-11T07:30:11.825Z,87.91
2022-12-11T07:33:20.807Z,86.98
2022-12-11T07:36:30.746Z,86.53
2022-12-11T07:39:39.839Z,87.14
2022-12-11T07:42:48.506Z,87.15
2022-12-11T07:45:56.865Z,87.05
2022-12-11T07:49:06.729Z,86.42
2022-12-11T07:52:15.810Z,85.55
2022-12-11T07:55:24.374Z,85.64
2022-12-11T07:58:38.877Z,85.99
2022-12-11T08:01:47.083Z,84.42
2022-12-11T08:05:01.793Z,85.14
2022-12-11T08:08:10.485Z,85.74
2022-12-11T08:11:20.830Z,85.48
2022-12-11T08:14:42.837Z,84.56
2022-12-11T08:17:51.473Z,84.41
2022-12-11T08:21:06.810Z,84.42
2022-12-11T08:24:21.892Z,85.09
2022-12-11T08:27:23.742Z,84.03
2022-12-11T08:30:39.908Z,84.89
2022-12-11T08:33:56.864Z,84.29
2022-12-11T08:37:04.777Z,83.72
2022-12-11T08:40:20.830Z,83.32
2022-12-11T08:43:29.420Z,83.09
2022-12-11T08:46:43.895Z,82.19
2022-12-11T08:49:45.814Z,82.50
2022-12-11T08:53:00.807Z,82.96
2022-12-11T08:56:05.976Z,81.98
2022-12-11T08:59:20.867Z,81.55
2022-12-11T09:02:22.636Z,81.74
2022-12-11T09:05:37.878Z,81.29
2022-12-11T09:08:40.902Z,80.15
2022-12-11T09:11:56.806Z,80.66
2022-12-11T09:15:18.826Z,81.19
2022-12-11T09:18:27.467Z,81.46
2022-12-11T09:21:36.960Z,81.14
2022-12-11T09:24:51.867Z,80.85
2022-12-11T09:27:59.834Z,80.92
2022-12-11T09:31:19.651Z,80.90
2022-12-11T09:34:29.576Z,81.96
2022-12-11T09:37:44.834Z,80.57
2022-12-11T09:40:54.078Z,81.09
2022-12-11T09:44:22.904Z,80.14
2022-12-11T09:47:46.906Z,80.46
2022-12-11T09:50:51.588Z,79.16
2022-12-11T09:54:10.222Z,79.81
2022-12-11T09:57:38.888Z,79.00
2022-12-11T10:01:05.040Z,79.82
2022-12-11T10:04:49.887Z,78.24
2022-12-11T10:08:26.898Z,78.14
2022-12-11T10:12:04.879Z,77.88
2022-12-11T10:15:40.964Z,78.41
2022-12-11T10:18:42.861Z,78.18
2022-12-11T10:21:59.887Z,77.75
2022-12-11T10:25:13.084Z,78.19
2022-12-11T10:28:21.950Z,77.48
2022-12-11T10:31:47.862Z,77.51
2022-12-11T10:35:08.993Z,77.84
2022-12-11T10:38:17.016Z,77.90
2022-12-11T10:41:47.963Z,77.39
2022-12-11T10:45:00.252Z,76.96
2022-12-11T10:48:17.885Z,77.80
2022-12-11T10:51:36.577Z,78.92
2022-12-11T10:54:52.930Z,78.73
2022-12-11T10:57:59.990Z,78.85
2022-12-11T11:01:21.929Z,78.26
2022-12-11T11:04:31.581Z,78.48
2022-12-11T11:07:45.970Z,78.08
2022-12-11T11:10:59.510Z,77.84
2022-12-11T11:14:30.926Z,77.84
2022-12-11T11:17:54.565Z,77.74
2022-12-11T11:21:04.088Z,77.61
2022-12-11T11:24:12.910Z,77.60
2022-12-11T11:27:35.315Z,77.60
2022-12-11T11:31:10.995Z,77.67
2022-12-11T11:34:27.935Z,77.22
2022-12-11T11:37:38.851Z,76.87
2022-12-11T11:41:18.696Z,76.32
2022-12-11T11:44:43.900Z,77.41
2022-12-11T11:48:15.971Z,76.54
2022-12-11T11:51:37.662Z,76.93
2022-12-11T11:54:55.893Z,76.98
2022-12-11T11:58:16.843Z,77.47
2022-12-11T12:01:26.902Z,76.48
2022-12-11T12:04:35.507Z,76.28
2022-12-11T12:08:07.945Z,75.96
2022-12-11T12:11:36.463Z,76.35
2022-12-11T12:15:07.931Z,76.06
2022-12-11T12:18:46.087Z,75.74
2022-12-11T12:21:52.702Z,75.47
2022-12-11T12:25:30.974Z,75.98
2022-12-11T12:29:16.168Z,76.04
2022-12-11T12:32:43.567Z,75.79
2022-12-11T12:36:07.445Z,75.30
2022-12-11T12:39:38.948Z,76.03
2022-12-11T12:43:04.440Z,74.92
2022-12-11T12:46:38.927Z,74.96
2022-12-11T12:49:58.225Z,75.05
2022-12-11T12:53:06.906Z,75.00
2022-12-11T12:56:16.486Z,74.52
2022-12-11T12:59:28.114Z,74.90
2022-12-11T13:02:53.951Z,75.14
2022-12-11T13:06:08.203Z,74.46
2022-12-11T13:09:26.010Z,73.83
2022-12-11T13:12:49.946Z,74.46
2022-12-11T13:16:30.971Z,74.41
2022-12-11T13:19:46.127Z,73.88
2022-12-11T13:23:14.990Z,74.57
2022-12-11T13:26:39.981Z,74.69
2022-12-11T13:29:55.026Z,74.68
2022-12-11T13:33:20.942Z,73.94
2022-12-11T13:36:31.539Z,73.53
2022-12-11T13:39:46.986Z,74.32
2022-12-11T13:43:01.615Z,74.22
2022-12-11T13:46:13.999Z,73.63
2022-12-11T13:49:41.049Z,74.60
2022-12-11T13:52:54.733Z,74.38
2022-12-11T13:56:10.014Z,74.10
2022-12-11T13:59:23.746Z,74.68
2022-12-11T14:02:44.079Z,75.29
2022-12-11T14:05:45.923Z,75.01
2022-12-11T14:09:05.247Z,74.05
2022-12-11T14:12:20.762Z,75.41
2022-12-11T14:15:43.990Z,74.94
2022-12-11T14:18:52.970Z,75.60
2022-12-11T14:22:12.046Z,75.94
2022-12-11T14:25:23.309Z,75.76
2022-12-11T14:28:49.011Z,76.26
2022-12-11T14:31:51.323Z,75.52
2022-12-11T14:35:11.041Z,76.48
2022-12-11T14:38:20.077Z,75.60
2022-12-11T14:41:57.070Z,76.63
2022-12-11T14:45:16.833Z,76.95
2022-12-11T14:48:37.139Z,77.66
2022-12-11T14:51:48.046Z,79.05
2022-12-11T14:55:03.143Z,78.74
2022-12-11T14:58:30.026Z,79.07
2022-12-11T15:01:41.004Z,78.36
2022-12-11T15:05:01.970Z,78.23
2022-12-11T15:08:33.009Z,78.82
2022-12-11T15:11:48.073Z,79.23
2022-12-11T15:15:06.026Z,79.33
2022-12-11T15:18:33.993Z,77.93
2022-12-11T15:21:36.811Z,78.52
2022-12-11T15:24:53.042Z,78.56
2022-12-11T15:27:58.407Z,77.77
2022-12-11T15:31:32.008Z,77.97
2022-12-11T15:34:44.946Z,76.35
2022-12-11T15:38:01.109Z,76.72
2022-12-11T15:41:26.048Z,77.47
2022-12-11T15:44:28.173Z,76.36
2022-12-11T15:47:43.027Z,75.60
2022-12-11T15:50:52.062Z,76.01
2022-12-11T15:54:00.806Z,76.06
2022-12-11T15:57:13.068Z,75.03
2022-12-11T16:00:32.100Z,75.66
2022-12-11T16:03:41.349Z,75.70
2022-12-11T16:06:50.637Z,74.94
2022-12-11T16:09:59.147Z,75.44
2022-12-11T16:13:07.883Z,75.63
2022-12-11T16:16:31.046Z,74.82
2022-12-11T16:19:33.301Z,74.84
2022-12-11T16:22:48.106Z,73.42
2022-12-11T16:25:57.066Z,73.51
2022-12-11T16:29:12.170Z,73.59
2022-12-11T16:32:21.250Z,73.43
2022-12-11T16:35:29.915Z,73.14
2022-12-11T16:38:38.195Z,72.73
2022-12-11T16:41:53.025Z,73.05
2022-12-11T16:45:01.094Z,72.51
2022-12-11T16:48:09.906Z,72.63
2022-12-11T16:51:25.035Z,71.66
2022-12-11T16:54:26.935Z,71.94
2022-12-11T16:57:42.111Z,72.18
2022-12-11T17:00:52.140Z,72.56
2022-12-11T17:04:01.180Z,73.37
2022-12-11T17:07:11.478Z,73.75
2022-12-11T17:10:26.110Z,73.56
2022-12-11T17:13:36.218Z,72.94
2022-12-11T17:16:51.390Z,73.02
2022-12-11T17:20:00.115Z,73.04
2022-12-11T17:23:17.098Z,73.30
2022-12-11T17:26:32.110Z,73.82
2022-12-11T17:29:34.002Z,74.12
2022-12-11T17:32:49.119Z,73.03
2022-12-11T17:35:51.006Z,72.76
2022-12-11T17:39:06.084Z,73.03
2022-12-11T17:42:08.091Z,73.02
2022-12-11T17:45:23.086Z,72.51
2022-12-11T17:48:24.943Z,73.03
2022-12-11T17:51:41.090Z,72.62
2022-12-11T17:54:42.867Z,72.91
2022-12-11T17:57:58.109Z,71.95
2022-12-11T18:01:07.162Z,73.45
2022-12-11T18:04:22.101Z,73.17
2022-12-11T18:07:23.931Z,72.50
2022-12-11T18:10:43.183Z,73.33
2022-12-11T18:13:45.682Z,72.72
2022-12-11T18:17:00.082Z,72.43
2022-12-11T18:20:12.463Z,72.30
2022-12-11T18:23:27.258Z,73.45
2022-12-11T18:26:29.158Z,73.20
2022-12-11T18:29:44.150Z,73.09
2022-12-11T18:32:52.776Z,73.37
2022-12-11T18:36:01.090Z,73.34
2022-12-11T18:39:16.106Z,74.32
2022-12-11T18:42:32.850Z,73.74
2022-12-11T18:45:49.082Z,73.60
2022-12-11T18:48:50.859Z,73.94
2022-12-11T18:52:05.151Z,74.05
2022-12-11T18:55:20.134Z,74.11
2022-12-11T18:58:35.131Z,73.97
2022-12-11T19:01:43.784Z,74.41
2022-12-11T19:04:53.145Z,73.81
2022-12-11T19:08:02.891Z,74.15
2022-12-11T19:11:12.162Z,74.26
2022-12-11T19:14:27.414Z,74.33
2022-12-11T19:17:43.122Z,74.23
2022-12-11T19:21:04.993Z,74.64
2022-12-11T19:24:20.678Z,74.68
2022-12-11T19:27:35.102Z,74.30
2022-12-11T19:30:51.150Z,74.80
2022-12-11T19:34:00.683Z,74.89
2022-12-11T19:37:09.082Z,74.63
2022-12-11T19:40:21.193Z,75.14
2022-12-11T19:43:36.230Z,74.87
2022-12-11T19:46:38.620Z,76.04
2022-12-11T19:49:53.235Z,75.46
2022-12-11T19:53:01.867Z,75.57
2022-12-11T19:56:17.127Z,75.26
2022-12-11T19:59:18.993Z,75.31
2022-12-11T20:02:34.130Z,75.37
2022-12-11T20:05:42.782Z,75.51
2022-12-11T20:08:51.197Z,75.85
2022-12-11T20:11:59.969Z,76.47
2022-12-11T20:15:08.110Z,77.04
2022-12-11T20:18:18.705Z,76.99
2022-12-11T20:21:34.142Z,78.18
2022-12-11T20:24:36.563Z,78.44
2022-12-11T20:27:51.180Z,78.08
2022-12-11T20:31:20.152Z,77.83
2022-12-11T20:34:22.177Z,79.14
2022-12-11T20:37:37.203Z,78.89
2022-12-11T20:40:46.041Z,78.85
2022-12-11T20:44:01.142Z,78.44
2022-12-11T20:47:09.689Z,78.46
2022-12-11T20:50:18.249Z,77.85
2022-12-11T20:53:33.155Z,77.60
2022-12-11T20:56:48.167Z,78.29
2022-12-11T20:59:56.826Z,77.54
2022-12-11T21:03:05.186Z,77.88
2022-12-11T21:06:21.010Z,77.94
2022-12-11T21:09:36.155Z,78.06
2022-12-11T21:12:51.177Z,78.33
2022-12-11T21:16:05.364Z,78.68
2022-12-11T21:19:21.290Z,78.99
2022-12-11T21:22:30.300Z,79.31
2022-12-11T21:25:39.011Z,80.00
2022-12-11T21:28:47.226Z,79.66
2022-12-11T21:32:03.202Z,80.02
2022-12-11T21:35:05.632Z,79.72
2022-12-11T21:38:20.213Z,79.48
2022-12-11T21:41:36.195Z,79.17
2022-12-11T21:48:13.752Z,79.95
2022-12-11T21:51:36.472Z,78.76
2022-12-11T21:54:52.178Z,79.39
2022-12-11T21:58:00.794Z,80.08
2022-12-11T22:01:11.231Z,79.64
2022-12-11T22:04:20.150Z,80.46
2022-12-11T22:07:28.199Z,79.18
2022-12-11T22:10:37.660Z,79.92
2022-12-11T22:13:53.167Z,79.62
2022-12-11T22:16:55.044Z,80.45
2022-12-11T22:20:12.218Z,79.78
2022-12-11T22:23:21.270Z,79.80
2022-12-11T22:26:37.322Z,80.75
2022-12-11T22:29:45.894Z,82.53
2022-12-11T22:32:54.278Z,83.60
2022-12-11T22:36:03.158Z,83.33
2022-12-11T22:39:11.232Z,84.71
2022-12-11T22:42:27.302Z,84.51
2022-12-11T22:45:29.217Z,84.68
2022-12-11T22:48:44.222Z,84.53
2022-12-11T22:51:46.103Z,84.58
2022-12-11T22:55:01.202Z,84.93
2022-12-11T22:58:03.133Z,83.45
2022-12-11T23:01:23.193Z,83.39
2022-12-11T23:04:25.494Z,83.24
2022-12-11T23:07:40.296Z,83.96
2022-12-11T23:10:55.245Z,82.88
2022-12-11T23:14:22.226Z,82.75
2022-12-11T23:17:30.816Z,83.80
2022-12-11T23:20:42.229Z,82.50
2022-12-11T23:23:57.187Z,83.29
2022-12-11T23:27:06.013Z,83.75
2022-12-11T23:30:21.266Z,84.11
2022-12-11T23:33:30.158Z,82.70
2022-12-11T23:36:45.262Z,83.51
2022-12-11T23:39:53.287Z,83.57
2022-12-11T23:43:08.246Z,83.78
2022-12-11T23:46:21.461Z,82.73
2022-12-11T23:49:30.254Z,82.64
2022-12-11T23:52:38.863Z,81.61
2022-12-11T23:55:50.297Z,81.92
2022-12-11T23:58:58.938Z,82.84
